Time;durP1;ratioP1;P1;durP2;ratioP2;P2;SDS_P1;SDS_P2;PMS_P1;PMS_P2;Temp;Humidity;BMP_temperature;BMP_pressure;BME280_temperature;BME280_humidity;BME280_pressure;Samples;Min_cycle;Max_cycle;Signal;HPM_P1;HPM_P2
2022/06/28 00:00:45;;;;;;;;;;;;;;;;;;2208713;67;1283;-72
2022/06/28 00:03:19;;;;;;;;;;;;;;;;;;2208668;59;1275;-72
2022/06/28 00:05:52;;;;;;;;;;;;;;;;;;2208497;59;1589;-72
2022/06/28 00:08:25;;;;;;;;;;;;;;;;;;2208705;67;1934;-72
2022/06/28 00:11:01;;;;;;;;;;;;;;;;;;2208542;67;1287;-72
2022/06/28 00:13:34;;;;;;;;;;;;;;;;;;2208006;59;1290;-72
2022/06/28 00:16:05;;;;;;;;;;;;;;;;;;2208195;67;1201;-73
2022/06/28 00:18:39;;;;;;;;;;;;;;;;;;2208026;59;1111;-72
2022/06/28 00:21:12;;;;;;;;;;;;;;;;;;2208568;67;1085;-72
2022/06/28 00:23:48;;;;;;;;;;;;;;;;;;2208190;67;1279;-72
2022/06/28 00:26:24;;;;;;;;;;;;;;;;;;2208060;59;1304;-72
2022/06/28 00:28:57;;;;;;;;;;;;;;;;;;2208217;59;1937;-72
2022/06/28 00:31:30;;;;;;;;;;;;;;;;;;2207786;59;2022;-71
2022/06/28 00:34:04;;;;;;;;;;;;;;;;;;2208213;59;1210;-72
2022/06/28 00:36:38;;;;;;;;;;;;;;;;;;2207634;59;1111;-72
2022/06/28 00:39:11;;;;;;;;;;;;;;;;;;2208289;59;1190;-72
2022/06/28 00:41:47;;;;;;;;;;;;;;;;;;2207787;67;2105;-72
2022/06/28 00:44:22;;;;;;;;;;;;;;;;;;2208504;67;1249;-72
2022/06/28 00:46:56;;;;;;;;;;;;;;;;;;2208128;67;1204;-72
2022/06/28 00:49:29;;;;;;;;;;;;;;;;;;2207607;67;1925;-72
2022/06/28 00:52:03;;;;;;;;;;;;;;;;;;2208068;67;1242;-72
2022/06/28 00:54:36;;;;;;;;;;;;;;;;;;2207775;67;1312;-72
2022/06/28 00:57:12;;;;;;;;;;;;;;;;;;2208271;67;1163;-72
2022/06/28 00:59:46;;;;;;;;;;;;;;;;;;2207630;67;1248;-72
2022/06/28 01:02:19;;;;;;;;;;;;;;;;;;2208168;59;1239;-72
2022/06/28 01:04:52;;;;;;;;;;;;;;;;;;2207882;59;1362;-72
2022/06/28 01:07:25;;;;;;;;;;;;;;;;;;2208214;59;1274;-72
2022/06/28 01:09:59;;;;;;;;;;;;;;;;;;2207945;67;1991;-72
2022/06/28 01:12:36;;;;;;;;;;;;;;;;;;2208047;59;1333;-72
2022/06/28 01:15:09;;;;;;;;;;;;;;;;;;2207631;67;1196;-71
2022/06/28 01:17:42;;;;;;;;;;;;;;;;;;2207179;59;1074;-72
2022/06/28 01:20:15;;;;;;;;;;;;;;;;;;2208173;67;1171;-72
2022/06/28 01:22:51;;;;;;;;;;;;;;;;;;2207544;67;1300;-71
2022/06/28 01:25:25;;;;;;;;;;;;;;;;;;2207720;59;1190;-71
2022/06/28 01:27:58;;;;;;;;;;;;;;;;;;2208432;59;1247;-72
2022/06/28 01:30:31;;;;;;;;;;;;;;;;;;2207044;67;2106;-71
2022/06/28 01:33:05;;;;;;;;;;;;;;;;;;2207377;67;1253;-72
2022/06/28 01:35:38;;;;;;;;;;;;;;;;;;2207640;67;1054;-72
2022/06/28 01:38:15;;;;;;;;;;;;;;;;;;2207925;67;1225;-72
2022/06/28 01:40:49;;;;;;;;;;;;;;;;;;2208016;59;2075;-72
2022/06/28 01:43:22;;;;;;;;;;;;;;;;;;2207596;59;1259;-72
2022/06/28 01:45:56;;;;;;;;;;;;;;;;;;2207485;67;1263;-72
2022/06/28 01:48:29;;;;;;;;;;;;;;;;;;2207603;59;1083;-72
2022/06/28 01:51:03;;;;;;;;;;;;;;;;;;2207484;59;2000;-72
2022/06/28 01:53:39;;;;;;;;;;;;;;;;;;2207153;67;1270;-72
2022/06/28 01:56:12;;;;;;;;;;;;;;;;;;2208694;67;1162;-72
2022/06/28 01:58:46;;;;;;;;;;;;;;;;;;2207642;67;1243;-72
2022/06/28 02:01:19;;;;;;;;;;;;;;;;;;2207761;67;1244;-72
2022/06/28 02:03:52;;;;;;;;;;;;;;;;;;2207734;59;1268;-72
2022/06/28 02:06:25;;;;;;;;;;;;;;;;;;2207906;59;1236;-72
2022/06/28 02:09:01;;;;;;;;;;;;;;;;;;2207675;67;2005;-72
2022/06/28 02:11:34;;;;;;;;;;;;;;;;;;2207686;59;1370;-72
2022/06/28 02:14:07;;;;;;;;;;;;;;;;;;2207819;67;1227;-72
2022/06/28 02:16:41;;;;;;;;;;;;;;;;;;2207122;67;1192;-72
2022/06/28 02:19:14;;;;;;;;;;;;;;;;;;2207649;59;1172;-72
2022/06/28 02:21:47;;;;;;;;;;;;;;;;;;2203409;67;1266;-72
2022/06/28 02:24:23;;;;;;;;;;;;;;;;;;2207570;59;1330;-72
2022/06/28 02:26:56;;;;;;;;;;;;;;;;;;2207653;59;1157;-72
2022/06/28 02:29:29;;;;;;;;;;;;;;;;;;2204016;59;1937;-72
2022/06/28 02:32:03;;;;;;;;;;;;;;;;;;2207078;67;2430;-72
2022/06/28 02:40:27;;;;;;;;;;;;;;;;;;2208225;67;1159;-72
2022/06/28 02:43:01;;;;;;;;;;;;;;;;;;2207560;59;2254;-72
2022/06/28 02:45:35;;;;;;;;;;;;;;;;;;2207390;67;1211;-72
2022/06/28 02:48:08;;;;;;;;;;;;;;;;;;2207554;67;1238;-72
2022/06/28 02:50:41;;;;;;;;;;;;;;;;;;2206843;67;1936;-72
2022/06/28 02:53:15;;;;;;;;;;;;;;;;;;2207334;59;1310;-72
2022/06/28 02:55:50;;;;;;;;;;;;;;;;;;2207521;67;1176;-72
2022/06/28 02:58:24;;;;;;;;;;;;;;;;;;2207931;67;1230;-72
2022/06/28 03:00:57;;;;;;;;;;;;;;;;;;2207602;59;1212;-72
2022/06/28 03:03:30;;;;;;;;;;;;;;;;;;2208156;59;2448;-72
2022/06/28 03:06:03;;;;;;;;;;;;;;;;;;2208207;59;1191;-72
2022/06/28 03:08:36;;;;;;;;;;;;;;;;;;2208243;59;1199;-72
2022/06/28 03:11:12;;;;;;;;;;;;;;;;;;2208621;59;1937;-72
2022/06/28 03:13:45;;;;;;;;;;;;;;;;;;2207743;67;1180;-72
2022/06/28 03:16:18;;;;;;;;;;;;;;;;;;2208171;59;1216;-72
2022/06/28 03:18:52;;;;;;;;;;;;;;;;;;2208032;67;1118;-72
2022/06/28 03:21:25;;;;;;;;;;;;;;;;;;2208055;59;1325;-72
2022/06/28 03:23:58;;;;;;;;;;;;;;;;;;2208473;59;1114;-72
2022/06/28 03:26:34;;;;;;;;;;;;;;;;;;2207686;67;1199;-72
2022/06/28 03:29:07;;;;;;;;;;;;;;;;;;2208216;59;1308;-72
2022/06/28 03:31:40;;;;;;;;;;;;;;;;;;2207277;59;2035;-72
2022/06/28 03:34:13;;;;;;;;;;;;;;;;;;2208298;67;1243;-72
2022/06/28 03:36:46;;;;;;;;;;;;;;;;;;2207809;67;1223;-72
2022/06/28 03:39:19;;;;;;;;;;;;;;;;;;2208206;67;1109;-72
2022/06/28 03:41:55;;;;;;;;;;;;;;;;;;2207714;59;2158;-72
2022/06/28 03:44:28;;;;;;;;;;;;;;;;;;2207878;67;1215;-72
2022/06/28 03:47:02;;;;;;;;;;;;;;;;;;2208055;59;1171;-72
2022/06/28 03:49:35;;;;;;;;;;;;;;;;;;2207778;67;1923;-72
2022/06/28 03:52:08;;;;;;;;;;;;;;;;;;2208277;67;1271;-72
2022/06/28 03:54:41;;;;;;;;;;;;;;;;;;2207686;59;1204;-72
2022/06/28 03:57:17;;;;;;;;;;;;;;;;;;2208459;59;1176;-73
2022/06/28 03:59:50;;;;;;;;;;;;;;;;;;2208023;59;1180;-73
2022/06/28 04:02:23;;;;;;;;;;;;;;;;;;2211381;53;2021;-66
2022/06/28 04:04:57;;;;;;;;;;;;;;;;;;2210906;67;1277;-66
2022/06/28 04:07:30;;;;;;;;;;;;;;;;;;2208618;67;1309;-67
2022/06/28 04:10:03;;;;;;;;;;;;;;;;;;2206950;67;1985;-65
2022/06/28 04:12:39;;;;;;;;;;;;;;;;;;2206478;59;1323;-67
2022/06/28 04:15:12;;;;;;;;;;;;;;;;;;2206986;67;1165;-66
2022/06/28 04:17:45;;;;;;;;;;;;;;;;;;2205545;67;1257;-65
2022/06/28 04:20:19;;;;;;;;;;;;;;;;;;2206744;67;1496;-66
2022/06/28 04:22:52;;;;;;;;;;;;;;;;;;2205985;67;1191;-66
2022/06/28 04:25:25;;;;;;;;;;;;;;;;;;2206834;67;1282;-65
2022/06/28 04:28:01;;;;;;;;;;;;;;;;;;2206532;59;1319;-67
2022/06/28 04:30:34;;;;;;;;;;;;;;;;;;2206540;59;1977;-66
2022/06/28 04:33:07;;;;;;;;;;;;;;;;;;2206785;67;1192;-67
2022/06/28 04:35:40;;;;;;;;;;;;;;;;;;2206582;67;1164;-67
2022/06/28 04:38:14;;;;;;;;;;;;;;;;;;2206966;67;1312;-67
2022/06/28 04:40:47;;;;;;;;;;;;;;;;;;2206193;67;2113;-66
2022/06/28 04:43:23;;;;;;;;;;;;;;;;;;2206536;67;1285;-66
2022/06/28 04:45:56;;;;;;;;;;;;;;;;;;2206346;67;1140;-66
2022/06/28 04:48:29;;;;;;;;;;;;;;;;;;2207005;67;1243;-66
2022/06/28 04:51:10;;;;;;;;;;;;;;;;;;2207064;67;1919;-67
2022/06/28 04:53:45;;;;;;;;;;;;;;;;;;2206938;59;1178;-67
2022/06/28 04:56:18;;;;;;;;;;;;;;;;;;2206431;67;1303;-66
2022/06/28 04:58:54;;;;;;;;;;;;;;;;;;2206800;59;1262;-67
2022/06/28 05:01:27;;;;;;;;;;;;;;;;;;2207887;67;1380;-66
2022/06/28 05:04:00;;;;;;;;;;;;;;;;;;2207657;59;1073;-67
2022/06/28 05:06:33;;;;;;;;;;;;;;;;;;2207922;67;1124;-65
2022/06/28 05:09:07;;;;;;;;;;;;;;;;;;2206202;67;1322;-65
2022/06/28 05:11:40;;;;;;;;;;;;;;;;;;2206506;59;1924;-66
2022/06/28 05:14:16;;;;;;;;;;;;;;;;;;2206323;67;1208;-67
2022/06/28 05:16:49;;;;;;;;;;;;;;;;;;2206160;67;1178;-67
2022/06/28 05:19:22;;;;;;;;;;;;;;;;;;2206884;67;1333;-66
2022/06/28 05:21:55;;;;;;;;;;;;;;;;;;2207407;67;1246;-66
2022/06/28 05:24:28;;;;;;;;;;;;;;;;;;2206528;67;1188;-66
2022/06/28 05:27:02;;;;;;;;;;;;;;;;;;2206343;67;1301;-66
2022/06/28 05:29:37;;;;;;;;;;;;;;;;;;2206844;59;1320;-65
2022/06/28 05:32:11;;;;;;;;;;;;;;;;;;2206964;59;1995;-65
2022/06/28 05:34:44;;;;;;;;;;;;;;;;;;2206221;67;1099;-65
2022/06/28 05:37:17;;;;;;;;;;;;;;;;;;2206010;67;1178;-66
2022/06/28 05:39:50;;;;;;;;;;;;;;;;;;2206262;67;1863;-66
2022/06/28 05:42:23;;;;;;;;;;;;;;;;;;2206210;59;2035;-67
2022/06/28 05:44:59;;;;;;;;;;;;;;;;;;2206502;59;1273;-65
2022/06/28 05:47:33;;;;;;;;;;;;;;;;;;2205556;67;1231;-66
2022/06/28 05:50:06;;;;;;;;;;;;;;;;;;2206350;60;1934;-65
2022/06/28 05:52:39;;;;;;;;;;;;;;;;;;2206545;67;1173;-67
2022/06/28 05:55:13;;;;;;;;;;;;;;;;;;2203454;67;1423;-65
2022/06/28 05:57:46;;;;;;;;;;;;;;;;;;2206431;67;1295;-67
2022/06/28 06:00:22;;;;;;;;;;;;;;;;;;2206900;67;1100;-64
2022/06/28 06:02:55;;;;;;;;;;;;;;;;;;2207575;59;1253;-65
2022/06/28 06:05:28;;;;;;;;;;;;;;;;;;2206934;67;1237;-66
2022/06/28 06:08:01;;;;;;;;;;;;;;;;;;2207097;67;1251;-66
2022/06/28 06:10:34;;;;;;;;;;;;;;;;;;2205816;59;1989;-65
2022/06/28 06:13:08;;;;;;;;;;;;;;;;;;2206775;59;1796;-66
2022/06/28 06:15:43;;;;;;;;;;;;;;;;;;2206289;67;1187;-65
2022/06/28 06:18:17;;;;;;;;;;;;;;;;;;2206228;67;1271;-64
2022/06/28 06:20:50;;;;;;;;;;;;;;;;;;2205893;67;1189;-65
2022/06/28 06:23:23;;;;;;;;;;;;;;;;;;2206096;67;1261;-66
2022/06/28 06:25:56;;;;;;;;;;;;;;;;;;2206102;67;1255;-65
2022/06/28 06:28:30;;;;;;;;;;;;;;;;;;2205893;59;1313;-67
2022/06/28 06:31:07;;;;;;;;;;;;;;;;;;2206161;59;2032;-67
2022/06/28 06:33:41;;;;;;;;;;;;;;;;;;2206460;67;1067;-65
2022/06/28 06:36:14;;;;;;;;;;;;;;;;;;2206475;67;1196;-65
2022/06/28 06:38:47;;;;;;;;;;;;;;;;;;2205974;60;1236;-66
2022/06/28 06:41:20;;;;;;;;;;;;;;;;;;2206319;59;2042;-65
2022/06/28 06:43:54;;;;;;;;;;;;;;;;;;2206800;59;1271;-65
2022/06/28 06:46:30;;;;;;;;;;;;;;;;;;2206884;67;1199;-65
2022/06/28 06:49:03;;;;;;;;;;;;;;;;;;2206179;67;1270;-65
2022/06/28 06:51:36;;;;;;;;;;;;;;;;;;2207486;67;1945;-64
2022/06/28 06:54:10;;;;;;;;;;;;;;;;;;2206867;67;1226;-66
2022/06/28 06:56:43;;;;;;;;;;;;;;;;;;2206431;67;1511;-65
2022/06/28 06:59:17;;;;;;;;;;;;;;;;;;2207036;67;1174;-65
2022/06/28 07:01:53;;;;;;;;;;;;;;;;;;2207519;59;1240;-67
2022/06/28 07:04:26;;;;;;;;;;;;;;;;;;2207833;67;1133;-66
2022/06/28 07:07:00;;;;;;;;;;;;;;;;;;2207994;67;1204;-67
2022/06/28 07:09:33;;;;;;;;;;;;;;;;;;2206481;67;1215;-66
2022/06/28 07:12:07;;;;;;;;;;;;;;;;;;2205622;59;2000;-67
2022/06/28 07:14:40;;;;;;;;;;;;;;;;;;2206395;67;1092;-66
2022/06/28 07:17:16;;;;;;;;;;;;;;;;;;2206500;67;1169;-66
2022/06/28 07:19:49;;;;;;;;;;;;;;;;;;2206760;59;1224;-66
2022/06/28 07:22:23;;;;;;;;;;;;;;;;;;2207606;59;1214;-66
2022/06/28 07:24:56;;;;;;;;;;;;;;;;;;2206402;67;1272;-65
2022/06/28 07:27:29;;;;;;;;;;;;;;;;;;2206671;59;1415;-67
2022/06/28 07:30:02;;;;;;;;;;;;;;;;;;2206296;67;1147;-66
2022/06/28 07:32:39;;;;;;;;;;;;;;;;;;2207453;59;2302;-66
2022/06/28 07:35:12;;;;;;;;;;;;;;;;;;2206910;67;1166;-66
2022/06/28 07:37:46;;;;;;;;;;;;;;;;;;2206164;67;1231;-66
2022/06/28 07:40:19;;;;;;;;;;;;;;;;;;2206730;67;1267;-66
2022/06/28 07:42:52;;;;;;;;;;;;;;;;;;2206510;59;2349;-67
2022/06/28 07:45:26;;;;;;;;;;;;;;;;;;2206504;59;1258;-66
2022/06/28 07:48:01;;;;;;;;;;;;;;;;;;2206372;67;1330;-66
2022/06/28 07:53:24;;;;;;;;;;;;;;;;;;2206723;67;1190;-66
2022/06/28 07:55:58;;;;;;;;;;;;;;;;;;2206524;67;1242;-67
2022/06/28 07:58:31;;;;;;;;;;;;;;;;;;2206913;67;1310;-66
2022/06/28 08:01:04;;;;;;;;;;;;;;;;;;2206942;67;1061;-66
2022/06/28 08:03:40;;;;;;;;;;;;;;;;;;2207419;59;1461;-67
2022/06/28 08:06:13;;;;;;;;;;;;;;;;;;2206845;67;1235;-67
2022/06/28 08:08:46;;;;;;;;;;;;;;;;;;2206104;67;1205;-67
2022/06/28 08:11:19;;;;;;;;;;;;;;;;;;2205859;59;1983;-66
2022/06/28 08:13:54;;;;;;;;;;;;;;;;;;2206249;60;1242;-66
2022/06/28 08:16:27;;;;;;;;;;;;;;;;;;2206613;67;1203;-66
2022/06/28 08:19:04;;;;;;;;;;;;;;;;;;2206289;67;1306;-65
2022/06/28 08:21:38;;;;;;;;;;;;;;;;;;2206523;67;1178;-65
2022/06/28 08:24:11;;;;;;;;;;;;;;;;;;2206864;67;1230;-66
2022/06/28 08:26:45;;;;;;;;;;;;;;;;;;2205544;67;1219;-67
2022/06/28 08:29:20;;;;;;;;;;;;;;;;;;2206310;59;1336;-66
2022/06/28 08:31:53;;;;;;;;;;;;;;;;;;2206545;67;1988;-66
2022/06/28 08:34:29;;;;;;;;;;;;;;;;;;2206167;67;1108;-66
2022/06/28 08:37:03;;;;;;;;;;;;;;;;;;2206451;67;1117;-66
2022/06/28 08:39:36;;;;;;;;;;;;;;;;;;2206835;67;1036;-66
2022/06/28 08:42:10;;;;;;;;;;;;;;;;;;2206294;59;2009;-66
2022/06/28 08:44:43;;;;;;;;;;;;;;;;;;2206389;67;1039;-66
2022/06/28 08:47:17;;;;;;;;;;;;;;;;;;2205963;67;1251;-65
2022/06/28 08:49:56;;;;;;;;;;;;;;;;;;2206493;67;1175;-66
2022/06/28 08:52:30;;;;;;;;;;;;;;;;;;2205870;67;1928;-66
2022/06/28 08:55:04;;;;;;;;;;;;;;;;;;2206365;67;1238;-66
2022/06/28 08:57:37;;;;;;;;;;;;;;;;;;2206497;67;1191;-66
2022/06/28 09:00:11;;;;;;;;;;;;;;;;;;2206095;67;1149;-66
2022/06/28 09:02:45;;;;;;;;;;;;;;;;;;2206438;59;1923;-66
2022/06/28 09:05:22;;;;;;;;;;;;;;;;;;2207060;67;1172;-65
2022/06/28 09:07:56;;;;;;;;;;;;;;;;;;2206163;67;1172;-66
2022/06/28 09:10:29;;;;;;;;;;;;;;;;;;2206724;67;2079;-65
2022/06/28 09:13:10;;;;;;;;;;;;;;;;;;2206011;59;2039;-66
2022/06/28 09:15:47;;;;;;;;;;;;;;;;;;2206664;67;1135;-65
2022/06/28 09:18:22;;;;;;;;;;;;;;;;;;2206327;67;1268;-65
2022/06/28 09:20:59;;;;;;;;;;;;;;;;;;2206879;67;1158;-66
2022/06/28 09:23:34;;;;;;;;;;;;;;;;;;2206302;67;1142;-66
2022/06/28 09:26:09;;;;;;;;;;;;;;;;;;2207319;67;1148;-65
2022/06/28 09:28:43;;;;;;;;;;;;;;;;;;2207556;59;1367;-65
2022/06/28 09:31:26;;;;;;;;;;;;;;;;;;2206443;59;1919;-65
2022/06/28 09:34:07;;;;;;;;;;;;;;;;;;2206168;67;1259;-66
2022/06/28 09:36:55;;;;;;;;;;;;;;;;;;2206115;67;1123;-66
2022/06/28 09:39:29;;;;;;;;;;;;;;;;;;2206203;67;1279;-64
2022/06/28 09:42:08;;;;;;;;;;;;;;;;;;2205951;59;1957;-66
2022/06/28 09:44:43;;;;;;;;;;;;;;;;;;2206044;67;1217;-66
2022/06/28 09:47:17;;;;;;;;;;;;;;;;;;2206184;67;1244;-65
2022/06/28 09:49:50;;;;;;;;;;;;;;;;;;2206558;67;1087;-66
2022/06/28 09:52:29;;;;;;;;;;;;;;;;;;2206657;67;1971;-66
2022/06/28 09:55:03;;;;;;;;;;;;;;;;;;2206681;67;1257;-66
2022/06/28 09:57:37;;;;;;;;;;;;;;;;;;2206096;67;1233;-66
2022/06/28 10:00:11;;;;;;;;;;;;;;;;;;2206061;67;1082;-66
2022/06/28 10:02:44;;;;;;;;;;;;;;;;;;2206890;59;1207;-66
2022/06/28 10:05:18;;;;;;;;;;;;;;;;;;2207920;67;1197;-65
2022/06/28 10:07:54;;;;;;;;;;;;;;;;;;2205926;67;1269;-66
2022/06/28 10:10:27;;;;;;;;;;;;;;;;;;2206843;67;1336;-66
2022/06/28 10:15:55;;;;;;;;;;;;;;;;;;2206442;67;1114;-66
2022/06/28 10:18:29;;;;;;;;;;;;;;;;;;2205879;67;1298;-66
2022/06/28 10:21:03;;;;;;;;;;;;;;;;;;2206957;67;1286;-65
2022/06/28 10:23:40;;;;;;;;;;;;;;;;;;2205777;67;1158;-66
2022/06/28 10:26:20;;;;;;;;;;;;;;;;;;2206394;67;1179;-66
2022/06/28 10:29:02;;;;;;;;;;;;;;;;;;2205995;59;1346;-66
2022/06/28 10:31:43;;;;;;;;;;;;;;;;;;2206322;59;1871;-65
2022/06/28 10:34:17;;;;;;;;;;;;;;;;;;2206018;67;1925;-66
2022/06/28 10:36:52;;;;;;;;;;;;;;;;;;2206649;67;1226;-64
2022/06/28 10:39:31;;;;;;;;;;;;;;;;;;2206301;67;1259;-65
2022/06/28 10:42:08;;;;;;;;;;;;;;;;;;2202707;59;2093;-68
2022/06/28 10:44:49;;;;;;;;;;;;;;;;;;2205601;67;1159;-66
2022/06/28 10:47:22;;;;;;;;;;;;;;;;;;2206241;59;1310;-66
2022/06/28 10:49:58;;;;;;;;;;;;;;;;;;2206248;67;1279;-66
2022/06/28 10:52:33;;;;;;;;;;;;;;;;;;2206063;67;1988;-64
2022/06/28 10:55:30;;;;;;;;;;;;;;;;;;2206407;67;1681;-65
2022/06/28 10:58:13;;;;;;;;;;;;;;;;;;2204890;67;1626;-65
2022/06/28 11:00:54;;;;;;;;;;;;;;;;;;2205745;59;1221;-66
2022/06/28 11:03:28;;;;;;;;;;;;;;;;;;2206577;59;1225;-65
2022/06/28 11:06:06;;;;;;;;;;;;;;;;;;2207765;67;1318;-65
2022/06/28 11:08:48;;;;;;;;;;;;;;;;;;2205748;67;1587;-66
2022/06/28 11:11:21;;;;;;;;;;;;;;;;;;2206103;59;1354;-64
2022/06/28 11:14:12;;;;;;;;;;;;;;;;;;2206629;67;1997;-65
2022/06/28 11:16:49;;;;;;;;;;;;;;;;;;2206165;67;2179;-66
2022/06/28 11:19:22;;;;;;;;;;;;;;;;;;2205618;59;1330;-66
2022/06/28 11:21:56;;;;;;;;;;;;;;;;;;2206474;67;1183;-66
2022/06/28 11:24:29;;;;;;;;;;;;;;;;;;2206091;67;1205;-66
2022/06/28 11:29:57;;;;;;;;;;;;;;;;;;2206277;67;1099;-65
2022/06/28 11:32:34;;;;;;;;;;;;;;;;;;2206909;59;2345;-66
2022/06/28 11:35:09;;;;;;;;;;;;;;;;;;2206251;67;1200;-66
2022/06/28 11:37:50;;;;;;;;;;;;;;;;;;2206780;67;1227;-66
2022/06/28 11:40:24;;;;;;;;;;;;;;;;;;2206162;67;1207;-66
2022/06/28 11:43:04;;;;;;;;;;;;;;;;;;2206587;59;2309;-66
2022/06/28 11:45:39;;;;;;;;;;;;;;;;;;2206137;67;1034;-66
2022/06/28 11:48:15;;;;;;;;;;;;;;;;;;2206193;67;1253;-66
2022/06/28 11:50:50;;;;;;;;;;;;;;;;;;2206504;67;1266;-66
2022/06/28 11:53:24;;;;;;;;;;;;;;;;;;2207342;67;1984;-66
2022/06/28 11:55:58;;;;;;;;;;;;;;;;;;2206597;67;1318;-66
2022/06/28 11:58:32;;;;;;;;;;;;;;;;;;2206412;67;1218;-66
2022/06/28 12:01:07;;;;;;;;;;;;;;;;;;2206746;67;1248;-66
2022/06/28 12:03:55;;;;;;;;;;;;;;;;;;2206364;59;1179;-66
2022/06/28 12:06:33;;;;;;;;;;;;;;;;;;2207182;67;1179;-68
2022/06/28 12:09:07;;;;;;;;;;;;;;;;;;2206608;67;1258;-66
2022/06/28 12:11:43;;;;;;;;;;;;;;;;;;2206701;59;1343;-66
2022/06/28 12:14:17;;;;;;;;;;;;;;;;;;2205923;67;1980;-65
2022/06/28 12:16:51;;;;;;;;;;;;;;;;;;2206752;67;1244;-65
2022/06/28 12:19:28;;;;;;;;;;;;;;;;;;2206347;67;1179;-66
2022/06/28 12:22:05;;;;;;;;;;;;;;;;;;2206439;67;1202;-66
2022/06/28 12:24:42;;;;;;;;;;;;;;;;;;2206081;67;1624;-66
2022/06/28 12:27:16;;;;;;;;;;;;;;;;;;2207230;59;1235;-66
2022/06/28 12:29:49;;;;;;;;;;;;;;;;;;2206040;59;1557;-66
2022/06/28 12:32:23;;;;;;;;;;;;;;;;;;2206875;59;1854;-65
2022/06/28 12:34:58;;;;;;;;;;;;;;;;;;2205857;67;1931;-66
2022/06/28 12:37:34;;;;;;;;;;;;;;;;;;2206196;67;1199;-66
2022/06/28 12:40:08;;;;;;;;;;;;;;;;;;2205963;67;1143;-66
2022/06/28 12:42:42;;;;;;;;;;;;;;;;;;2206998;59;1914;-66
2022/06/28 12:45:15;;;;;;;;;;;;;;;;;;2207291;67;1121;-66
2022/06/28 12:47:49;;;;;;;;;;;;;;;;;;2206117;67;1263;-65
2022/06/28 12:50:22;;;;;;;;;;;;;;;;;;2206934;67;1131;-66
2022/06/28 12:52:58;;;;;;;;;;;;;;;;;;2206103;67;1913;-66
2022/06/28 12:55:31;;;;;;;;;;;;;;;;;;2206046;67;1156;-66
2022/06/28 12:58:04;;;;;;;;;;;;;;;;;;2206961;67;1172;-66
2022/06/28 13:00:37;;;;;;;;;;;;;;;;;;2207133;67;1136;-66
2022/06/28 13:03:10;;;;;;;;;;;;;;;;;;2207091;59;1101;-66
2022/06/28 13:05:44;;;;;;;;;;;;;;;;;;2205592;59;1576;-66
2022/06/28 13:08:20;;;;;;;;;;;;;;;;;;2203837;67;2124;-66
2022/06/28 13:10:53;;;;;;;;;;;;;;;;;;2206030;59;1319;-66
2022/06/28 13:13:28;;;;;;;;;;;;;;;;;;2206481;59;1910;-66
2022/06/28 13:16:02;;;;;;;;;;;;;;;;;;2206448;67;1220;-66
2022/06/28 13:18:35;;;;;;;;;;;;;;;;;;2206177;67;1208;-66
2022/06/28 13:21:08;;;;;;;;;;;;;;;;;;2206652;67;1191;-65
2022/06/28 13:23:44;;;;;;;;;;;;;;;;;;2206565;59;1153;-66
2022/06/28 13:26:18;;;;;;;;;;;;;;;;;;2206531;67;1250;-66
2022/06/28 13:28:52;;;;;;;;;;;;;;;;;;2206507;59;1276;-66
2022/06/28 13:31:25;;;;;;;;;;;;;;;;;;2206427;59;2011;-66
2022/06/28 13:33:59;;;;;;;;;;;;;;;;;;2205933;67;1931;-66
2022/06/28 13:36:32;;;;;;;;;;;;;;;;;;2205662;67;1141;-67
2022/06/28 13:39:08;;;;;;;;;;;;;;;;;;2206958;67;1254;-66
2022/06/28 13:41:42;;;;;;;;;;;;;;;;;;2206666;59;2036;-66
2022/06/28 13:44:16;;;;;;;;;;;;;;;;;;2206964;67;1183;-66
2022/06/28 13:46:49;;;;;;;;;;;;;;;;;;2205701;67;1112;-66
2022/06/28 13:49:22;;;;;;;;;;;;;;;;;;2206121;67;1318;-65
2022/06/28 13:51:55;;;;;;;;;;;;;;;;;;2206512;60;1295;-66
2022/06/28 13:54:31;;;;;;;;;;;;;;;;;;2206082;67;1929;-65
2022/06/28 13:57:05;;;;;;;;;;;;;;;;;;2206193;67;1265;-66
2022/06/28 13:59:38;;;;;;;;;;;;;;;;;;2206398;67;1116;-66
2022/06/28 14:02:11;;;;;;;;;;;;;;;;;;2206891;59;1300;-67
2022/06/28 14:04:44;;;;;;;;;;;;;;;;;;2206257;59;1307;-66
2022/06/28 14:07:17;;;;;;;;;;;;;;;;;;2206148;67;1260;-66
2022/06/28 14:09:53;;;;;;;;;;;;;;;;;;2206292;67;1232;-66
2022/06/28 14:12:26;;;;;;;;;;;;;;;;;;2205999;59;1403;-66
2022/06/28 14:14:59;;;;;;;;;;;;;;;;;;2206445;67;1935;-66
2022/06/28 14:17:33;;;;;;;;;;;;;;;;;;2205876;59;1306;-66
2022/06/28 14:20:07;;;;;;;;;;;;;;;;;;2205583;67;1247;-66
2022/06/28 14:22:40;;;;;;;;;;;;;;;;;;2205855;67;1156;-65
2022/06/28 14:25:16;;;;;;;;;;;;;;;;;;2205930;67;1253;-65
2022/06/28 14:27:49;;;;;;;;;;;;;;;;;;2205969;59;1273;-66
2022/06/28 14:30:23;;;;;;;;;;;;;;;;;;2206448;59;2034;-66
2022/06/28 14:32:56;;;;;;;;;;;;;;;;;;2206040;61;1178;-66
2022/06/28 14:35:29;;;;;;;;;;;;;;;;;;2205956;67;1928;-66
2022/06/28 14:38:03;;;;;;;;;;;;;;;;;;2205869;67;1231;-66
2022/06/28 14:40:39;;;;;;;;;;;;;;;;;;2206609;59;2056;-66
2022/06/28 14:43:12;;;;;;;;;;;;;;;;;;2206184;67;1216;-66
2022/06/28 14:45:45;;;;;;;;;;;;;;;;;;2205898;67;1244;-66
2022/06/28 14:48:19;;;;;;;;;;;;;;;;;;2206606;67;1218;-66
2022/06/28 14:50:52;;;;;;;;;;;;;;;;;;2206764;67;1227;-66
2022/06/28 14:53:25;;;;;;;;;;;;;;;;;;2206045;67;1987;-65
2022/06/28 14:56:02;;;;;;;;;;;;;;;;;;2206329;67;1237;-66
2022/06/28 14:58:35;;;;;;;;;;;;;;;;;;2206768;67;1202;-66
2022/06/28 15:01:08;;;;;;;;;;;;;;;;;;2207357;67;1750;-66
2022/06/28 15:03:41;;;;;;;;;;;;;;;;;;2206931;59;1365;-66
2022/06/28 15:06:15;;;;;;;;;;;;;;;;;;2207010;67;1138;-66
2022/06/28 15:08:49;;;;;;;;;;;;;;;;;;2206413;67;1239;-66
2022/06/28 15:11:25;;;;;;;;;;;;;;;;;;2207993;59;1388;-66
2022/06/28 15:13:58;;;;;;;;;;;;;;;;;;2206747;67;1943;-64
2022/06/28 15:16:32;;;;;;;;;;;;;;;;;;2206782;67;1178;-66
2022/06/28 15:19:05;;;;;;;;;;;;;;;;;;2206341;67;1289;-66
2022/06/28 15:32:58;;;;;;;;;;;;;;;;;;2206053;67;1733;-66
2022/06/28 15:35:31;;;;;;;;;;;;;;;;;;2207029;67;1936;-66
2022/06/28 15:38:04;;;;;;;;;;;;;;;;;;2206711;67;1306;-66
2022/06/28 15:40:38;;;;;;;;;;;;;;;;;;2206602;59;2021;-66
2022/06/28 15:43:16;;;;;;;;;;;;;;;;;;2206592;67;1454;-67
2022/06/28 15:45:49;;;;;;;;;;;;;;;;;;2206180;67;1225;-67
2022/06/28 15:48:22;;;;;;;;;;;;;;;;;;2206430;67;1248;-66
2022/06/28 15:50:56;;;;;;;;;;;;;;;;;;2206888;67;1198;-66
2022/06/28 15:53:29;;;;;;;;;;;;;;;;;;2206702;67;1068;-66
2022/06/28 15:56:02;;;;;;;;;;;;;;;;;;2206245;62;1995;-65
2022/06/28 15:58:38;;;;;;;;;;;;;;;;;;2206903;67;1276;-67
2022/06/28 16:01:11;;;;;;;;;;;;;;;;;;2205887;67;1192;-66
2022/06/28 16:03:44;;;;;;;;;;;;;;;;;;2206985;59;1319;-66
2022/06/28 16:06:18;;;;;;;;;;;;;;;;;;2206103;67;1216;-65
2022/06/28 16:08:51;;;;;;;;;;;;;;;;;;2206834;67;1247;-66
2022/06/28 16:11:24;;;;;;;;;;;;;;;;;;2206703;59;1379;-65
2022/06/28 16:14:00;;;;;;;;;;;;;;;;;;2206034;67;1933;-66
2022/06/28 16:16:33;;;;;;;;;;;;;;;;;;2207329;67;1109;-64
2022/06/28 16:19:06;;;;;;;;;;;;;;;;;;2205844;67;1334;-65
2022/06/28 16:21:40;;;;;;;;;;;;;;;;;;2207130;67;1169;-65
2022/06/28 16:24:13;;;;;;;;;;;;;;;;;;2205994;67;1282;-65
2022/06/28 16:26:46;;;;;;;;;;;;;;;;;;2206427;67;1243;-65
2022/06/28 16:29:22;;;;;;;;;;;;;;;;;;2206424;59;1272;-65
2022/06/28 16:31:55;;;;;;;;;;;;;;;;;;2207022;59;2008;-66
2022/06/28 16:34:29;;;;;;;;;;;;;;;;;;2206275;67;1996;-65
2022/06/28 16:37:02;;;;;;;;;;;;;;;;;;2206960;67;1147;-64
2022/06/28 16:39:35;;;;;;;;;;;;;;;;;;2206693;67;1306;-65
2022/06/28 16:42:08;;;;;;;;;;;;;;;;;;2206391;59;2665;-65
2022/06/28 16:44:47;;;;;;;;;;;;;;;;;;2206320;59;1147;-64
2022/06/28 16:47:21;;;;;;;;;;;;;;;;;;2206662;67;1223;-65
2022/06/28 16:49:54;;;;;;;;;;;;;;;;;;2207413;67;1180;-65
2022/06/28 16:52:27;;;;;;;;;;;;;;;;;;2206941;67;1353;-65
2022/06/28 16:55:01;;;;;;;;;;;;;;;;;;2206911;67;1990;-64
2022/06/28 16:57:35;;;;;;;;;;;;;;;;;;2206140;67;1278;-66
2022/06/28 17:00:14;;;;;;;;;;;;;;;;;;2206860;67;1246;-65
2022/06/28 17:02:47;;;;;;;;;;;;;;;;;;2207260;59;1233;-65
2022/06/28 17:05:21;;;;;;;;;;;;;;;;;;2206932;59;1343;-66
2022/06/28 17:07:54;;;;;;;;;;;;;;;;;;2207501;67;1231;-66
2022/06/28 17:10:27;;;;;;;;;;;;;;;;;;2207065;59;1370;-64
2022/06/28 17:13:01;;;;;;;;;;;;;;;;;;2207585;59;1290;-65
2022/06/28 17:15:37;;;;;;;;;;;;;;;;;;2206708;67;1989;-66
2022/06/28 17:18:10;;;;;;;;;;;;;;;;;;2206052;59;1247;-66
2022/06/28 17:20:43;;;;;;;;;;;;;;;;;;2206575;67;1174;-65
2022/06/28 17:23:17;;;;;;;;;;;;;;;;;;2207107;67;1263;-65
2022/06/28 17:25:50;;;;;;;;;;;;;;;;;;2205688;67;1131;-66
2022/06/28 17:28:23;;;;;;;;;;;;;;;;;;2206991;67;1165;-66
2022/06/28 17:30:59;;;;;;;;;;;;;;;;;;2206271;59;1929;-66
2022/06/28 17:33:32;;;;;;;;;;;;;;;;;;2207035;67;1129;-65
2022/06/28 17:36:06;;;;;;;;;;;;;;;;;;2206099;67;1930;-64
2022/06/28 17:38:39;;;;;;;;;;;;;;;;;;2206787;67;1184;-65
2022/06/28 17:41:12;;;;;;;;;;;;;;;;;;2206501;59;2017;-65
2022/06/28 17:43:45;;;;;;;;;;;;;;;;;;2206440;67;1238;-66
2022/06/28 17:46:21;;;;;;;;;;;;;;;;;;2206507;67;1179;-66
2022/06/28 17:48:55;;;;;;;;;;;;;;;;;;2206192;67;1267;-65
2022/06/28 17:51:28;;;;;;;;;;;;;;;;;;2206933;67;1226;-66
2022/06/28 17:54:01;;;;;;;;;;;;;;;;;;2206446;67;1225;-64
2022/06/28 17:56:35;;;;;;;;;;;;;;;;;;2205921;67;1929;-66
2022/06/28 17:59:09;;;;;;;;;;;;;;;;;;2207967;67;1232;-66
2022/06/28 18:01:45;;;;;;;;;;;;;;;;;;2206963;67;1140;-64
2022/06/28 18:04:19;;;;;;;;;;;;;;;;;;2202869;59;1335;-65
2022/06/28 18:06:52;;;;;;;;;;;;;;;;;;2206417;67;1228;-66
2022/06/28 18:09:25;;;;;;;;;;;;;;;;;;2206208;67;1248;-65
2022/06/28 18:11:59;;;;;;;;;;;;;;;;;;2206396;59;1290;-66
2022/06/28 18:14:32;;;;;;;;;;;;;;;;;;2206276;67;1092;-65
2022/06/28 18:17:08;;;;;;;;;;;;;;;;;;2205798;67;1940;-66